sensor_id;sensor_type;location;lat;lon;timestamp;P1;durP1;ratioP1;P2;durP2;ratioP2
63203;SDS011;49297;43.210;27.914;2023-04-12T00:01:56;2.08;;;1.88;;
63203;SDS011;49297;43.210;27.914;2023-04-12T00:04:21;1.83;;;1.73;;
63203;SDS011;49297;43.210;27.914;2023-04-12T00:06:52;2.67;;;1.67;;
63203;SDS011;49297;43.210;27.914;2023-04-12T00:09:19;3.05;;;2.00;;
63203;SDS011;49297;43.210;27.914;2023-04-12T00:11:45;2.22;;;1.63;;
63203;SDS011;49297;43.210;27.914;2023-04-12T00:14:10;3.28;;;1.80;;
63203;SDS011;49297;43.210;27.914;2023-04-12T00:16:36;2.22;;;1.77;;
63203;SDS011;49297;43.210;27.914;2023-04-12T00:19:04;1.60;;;1.50;;
63203;SDS011;49297;43.210;27.914;2023-04-12T00:21:31;1.92;;;1.67;;
63203;SDS011;49297;43.210;27.914;2023-04-12T00:23:57;2.17;;;1.77;;
63203;SDS011;49297;43.210;27.914;2023-04-12T00:26:22;2.80;;;1.70;;
63203;SDS011;49297;43.210;27.914;2023-04-12T00:28:51;2.17;;;1.65;;
63203;SDS011;49297;43.210;27.914;2023-04-12T00:31:17;3.73;;;2.13;;
63203;SDS011;49297;43.210;27.914;2023-04-12T00:33:42;1.75;;;1.63;;
63203;SDS011;49297;43.210;27.914;2023-04-12T00:36:09;2.15;;;1.50;;
63203;SDS011;49297;43.210;27.914;2023-04-12T00:38:35;2.20;;;1.67;;
63203;SDS011;49297;43.210;27.914;2023-04-12T00:41:01;1.77;;;1.27;;
63203;SDS011;49297;43.210;27.914;2023-04-12T00:43:27;2.00;;;1.70;;
63203;SDS011;49297;43.210;27.914;2023-04-12T00:45:53;1.73;;;1.30;;
63203;SDS011;49297;43.210;27.914;2023-04-12T00:48:22;1.50;;;1.40;;
63203;SDS011;49297;43.210;27.914;2023-04-12T00:50:50;2.40;;;1.73;;
63203;SDS011;49297;43.210;27.914;2023-04-12T00:53:20;2.63;;;2.00;;
63203;SDS011;49297;43.210;27.914;2023-04-12T00:55:47;1.38;;;1.27;;
63203;SDS011;49297;43.210;27.914;2023-04-12T00:58:15;2.15;;;1.58;;
63203;SDS011;49297;43.210;27.914;2023-04-12T01:00:41;1.67;;;1.48;;
63203;SDS011;49297;43.210;27.914;2023-04-12T01:03:15;1.30;;;1.20;;
63203;SDS011;49297;43.210;27.914;2023-04-12T01:11:48;3.08;;;1.33;;
63203;SDS011;49297;43.210;27.914;2023-04-12T01:14:24;1.10;;;1.00;;
63203;SDS011;49297;43.210;27.914;2023-04-12T01:16:57;1.60;;;1.20;;
63203;SDS011;49297;43.210;27.914;2023-04-12T01:24:45;2.70;;;1.55;;
63203;SDS011;49297;43.210;27.914;2023-04-12T01:29:57;1.17;;;0.90;;
63203;SDS011;49297;43.210;27.914;2023-04-12T01:32:28;1.67;;;1.13;;
63203;SDS011;49297;43.210;27.914;2023-04-12T01:34:56;2.10;;;1.40;;
63203;SDS011;49297;43.210;27.914;2023-04-12T01:37:24;1.30;;;1.02;;
63203;SDS011;49297;43.210;27.914;2023-04-12T01:39:51;2.47;;;1.00;;
63203;SDS011;49297;43.210;27.914;2023-04-12T01:42:19;2.25;;;0.90;;
63203;SDS011;49297;43.210;27.914;2023-04-12T01:44:45;0.98;;;0.88;;
63203;SDS011;49297;43.210;27.914;2023-04-12T01:47:12;2.05;;;1.05;;
63203;SDS011;49297;43.210;27.914;2023-04-12T01:50:38;1.37;;;1.10;;
63203;SDS011;49297;43.210;27.914;2023-04-12T01:53:02;1.77;;;1.10;;
63203;SDS011;49297;43.210;27.914;2023-04-12T01:55:33;1.85;;;0.93;;
63203;SDS011;49297;43.210;27.914;2023-04-12T01:58:03;2.00;;;1.15;;
63203;SDS011;49297;43.210;27.914;2023-04-12T02:00:29;0.90;;;0.65;;
63203;SDS011;49297;43.210;27.914;2023-04-12T02:02:57;1.90;;;1.25;;
63203;SDS011;49297;43.210;27.914;2023-04-12T02:05:24;1.63;;;1.00;;
63203;SDS011;49297;43.210;27.914;2023-04-12T02:07:50;2.08;;;1.23;;
63203;SDS011;49297;43.210;27.914;2023-04-12T02:10:15;1.35;;;1.13;;
63203;SDS011;49297;43.210;27.914;2023-04-12T02:12:52;1.45;;;1.23;;
63203;SDS011;49297;43.210;27.914;2023-04-12T02:15:18;1.67;;;1.27;;
63203;SDS011;49297;43.210;27.914;2023-04-12T02:17:45;1.48;;;1.15;;
63203;SDS011;49297;43.210;27.914;2023-04-12T02:20:11;1.58;;;1.20;;
63203;SDS011;49297;43.210;27.914;2023-04-12T02:22:38;1.85;;;1.35;;
63203;SDS011;49297;43.210;27.914;2023-04-12T02:25:04;2.10;;;1.50;;
63203;SDS011;49297;43.210;27.914;2023-04-12T02:27:33;2.45;;;1.45;;
63203;SDS011;49297;43.210;27.914;2023-04-12T02:29:58;2.10;;;1.48;;
63203;SDS011;49297;43.210;27.914;2023-04-12T02:32:24;3.08;;;1.95;;
63203;SDS011;49297;43.210;27.914;2023-04-12T02:34:50;2.00;;;1.67;;
63203;SDS011;49297;43.210;27.914;2023-04-12T02:37:17;1.77;;;1.40;;
63203;SDS011;49297;43.210;27.914;2023-04-12T02:39:46;1.65;;;1.55;;
63203;SDS011;49297;43.210;27.914;2023-04-12T02:42:12;3.43;;;2.50;;
63203;SDS011;49297;43.210;27.914;2023-04-12T02:44:38;2.83;;;1.33;;
63203;SDS011;49297;43.210;27.914;2023-04-12T02:47:04;1.90;;;1.20;;
63203;SDS011;49297;43.210;27.914;2023-04-12T02:49:30;1.75;;;1.65;;
63203;SDS011;49297;43.210;27.914;2023-04-12T02:51:56;2.93;;;2.13;;
63203;SDS011;49297;43.210;27.914;2023-04-12T02:54:22;1.97;;;1.50;;
63203;SDS011;49297;43.210;27.914;2023-04-12T02:56:47;3.33;;;1.63;;
63203;SDS011;49297;43.210;27.914;2023-04-12T02:59:14;2.83;;;1.80;;
63203;SDS011;49297;43.210;27.914;2023-04-12T03:01:40;2.25;;;1.80;;
63203;SDS011;49297;43.210;27.914;2023-04-12T03:04:10;2.92;;;2.17;;
63203;SDS011;49297;43.210;27.914;2023-04-12T03:06:36;2.00;;;1.58;;
63203;SDS011;49297;43.210;27.914;2023-04-12T03:09:04;2.73;;;2.40;;
63203;SDS011;49297;43.210;27.914;2023-04-12T03:11:30;3.13;;;2.28;;
63203;SDS011;49297;43.210;27.914;2023-04-12T03:13:56;2.10;;;1.80;;
63203;SDS011;49297;43.210;27.914;2023-04-12T03:16:24;2.37;;;2.13;;
63203;SDS011;49297;43.210;27.914;2023-04-12T03:18:54;3.38;;;1.70;;
63203;SDS011;49297;43.210;27.914;2023-04-12T03:21:21;3.47;;;2.65;;
63203;SDS011;49297;43.210;27.914;2023-04-12T03:23:47;2.58;;;2.25;;
63203;SDS011;49297;43.210;27.914;2023-04-12T03:26:13;4.43;;;2.05;;
63203;SDS011;49297;43.210;27.914;2023-04-12T03:28:39;2.25;;;1.70;;
63203;SDS011;49297;43.210;27.914;2023-04-12T03:31:06;4.10;;;2.50;;
63203;SDS011;49297;43.210;27.914;2023-04-12T03:33:31;2.75;;;1.95;;
63203;SDS011;49297;43.210;27.914;2023-04-12T03:35:57;2.67;;;1.98;;
63203;SDS011;49297;43.210;27.914;2023-04-12T03:38:23;2.25;;;1.98;;
63203;SDS011;49297;43.210;27.914;2023-04-12T03:40:48;2.83;;;2.50;;
63203;SDS011;49297;43.210;27.914;2023-04-12T03:43:14;2.13;;;1.90;;
63203;SDS011;49297;43.210;27.914;2023-04-12T03:45:41;2.40;;;1.83;;
63203;SDS011;49297;43.210;27.914;2023-04-12T03:48:07;1.58;;;1.33;;
63203;SDS011;49297;43.210;27.914;2023-04-12T03:50:35;2.40;;;1.58;;
63203;SDS011;49297;43.210;27.914;2023-04-12T03:53:08;2.42;;;1.45;;
63203;SDS011;49297;43.210;27.914;2023-04-12T03:55:37;2.47;;;1.38;;
63203;SDS011;49297;43.210;27.914;2023-04-12T03:58:03;1.67;;;1.57;;
63203;SDS011;49297;43.210;27.914;2023-04-12T04:00:29;3.17;;;1.73;;
63203;SDS011;49297;43.210;27.914;2023-04-12T04:02:58;1.50;;;1.40;;
63203;SDS011;49297;43.210;27.914;2023-04-12T04:05:27;2.63;;;1.60;;
63203;SDS011;49297;43.210;27.914;2023-04-12T04:07:55;4.20;;;1.73;;
63203;SDS011;49297;43.210;27.914;2023-04-12T04:10:27;1.75;;;1.65;;
63203;SDS011;49297;43.210;27.914;2023-04-12T04:12:53;1.80;;;1.70;;
63203;SDS011;49297;43.210;27.914;2023-04-12T04:15:19;2.17;;;1.95;;
63203;SDS011;49297;43.210;27.914;2023-04-12T04:17:45;2.83;;;1.90;;
63203;SDS011;49297;43.210;27.914;2023-04-12T04:20:12;4.05;;;1.80;;
63203;SDS011;49297;43.210;27.914;2023-04-12T04:22:38;5.57;;;2.27;;
63203;SDS011;49297;43.210;27.914;2023-04-12T04:25:06;3.25;;;2.13;;
63203;SDS011;49297;43.210;27.914;2023-04-12T04:27:32;3.97;;;2.70;;
63203;SDS011;49297;43.210;27.914;2023-04-12T04:29:59;3.17;;;2.73;;
63203;SDS011;49297;43.210;27.914;2023-04-12T04:32:29;4.07;;;3.25;;
63203;SDS011;49297;43.210;27.914;2023-04-12T04:34:58;3.50;;;2.60;;
63203;SDS011;49297;43.210;27.914;2023-04-12T04:37:24;2.92;;;2.63;;
63203;SDS011;49297;43.210;27.914;2023-04-12T04:39:51;3.72;;;3.25;;
63203;SDS011;49297;43.210;27.914;2023-04-12T04:42:17;4.70;;;3.27;;
63203;SDS011;49297;43.210;27.914;2023-04-12T04:44:43;3.80;;;3.40;;
63203;SDS011;49297;43.210;27.914;2023-04-12T04:47:09;4.10;;;3.30;;
63203;SDS011;49297;43.210;27.914;2023-04-12T04:49:35;4.77;;;3.13;;
63203;SDS011;49297;43.210;27.914;2023-04-12T04:52:02;5.45;;;2.97;;
63203;SDS011;49297;43.210;27.914;2023-04-12T04:54:28;3.17;;;2.60;;
63203;SDS011;49297;43.210;27.914;2023-04-12T04:56:56;2.58;;;2.38;;
63203;SDS011;49297;43.210;27.914;2023-04-12T04:59:22;2.30;;;2.10;;
63203;SDS011;49297;43.210;27.914;2023-04-12T05:01:48;2.50;;;2.30;;
63203;SDS011;49297;43.210;27.914;2023-04-12T05:04:16;3.63;;;3.10;;
63203;SDS011;49297;43.210;27.914;2023-04-12T05:06:42;2.97;;;2.65;;
63203;SDS011;49297;43.210;27.914;2023-04-12T05:09:08;3.13;;;2.70;;
63203;SDS011;49297;43.210;27.914;2023-04-12T05:11:34;4.77;;;2.03;;
63203;SDS011;49297;43.210;27.914;2023-04-12T05:14:01;2.70;;;1.23;;
63203;SDS011;49297;43.210;27.914;2023-04-12T05:16:27;2.00;;;1.70;;
63203;SDS011;49297;43.210;27.914;2023-04-12T05:18:53;2.70;;;2.15;;
63203;SDS011;49297;43.210;27.914;2023-04-12T05:21:18;2.72;;;2.47;;
63203;SDS011;49297;43.210;27.914;2023-04-12T05:23:45;2.58;;;1.77;;
63203;SDS011;49297;43.210;27.914;2023-04-12T05:26:11;2.85;;;1.67;;
63203;SDS011;49297;43.210;27.914;2023-04-12T05:28:37;2.35;;;1.90;;
63203;SDS011;49297;43.210;27.914;2023-04-12T05:31:03;2.22;;;1.52;;
63203;SDS011;49297;43.210;27.914;2023-04-12T05:33:30;2.00;;;1.52;;
63203;SDS011;49297;43.210;27.914;2023-04-12T05:35:55;1.63;;;1.10;;
63203;SDS011;49297;43.210;27.914;2023-04-12T05:38:21;2.80;;;1.55;;
63203;SDS011;49297;43.210;27.914;2023-04-12T05:40:48;4.20;;;2.47;;
63203;SDS011;49297;43.210;27.914;2023-04-12T05:43:16;2.90;;;2.05;;
63203;SDS011;49297;43.210;27.914;2023-04-12T05:45:42;3.90;;;2.40;;
63203;SDS011;49297;43.210;27.914;2023-04-12T05:48:08;2.90;;;2.17;;
63203;SDS011;49297;43.210;27.914;2023-04-12T05:50:34;3.95;;;2.67;;
63203;SDS011;49297;43.210;27.914;2023-04-12T05:53:00;9.60;;;2.95;;
63203;SDS011;49297;43.210;27.914;2023-04-12T05:55:26;2.50;;;1.73;;
63203;SDS011;49297;43.210;27.914;2023-04-12T05:57:53;1.98;;;1.50;;
63203;SDS011;49297;43.210;27.914;2023-04-12T06:00:19;2.15;;;1.80;;
63203;SDS011;49297;43.210;27.914;2023-04-12T06:02:46;2.10;;;1.90;;
63203;SDS011;49297;43.210;27.914;2023-04-12T06:05:14;2.33;;;2.03;;
63203;SDS011;49297;43.210;27.914;2023-04-12T06:07:44;2.50;;;1.33;;
63203;SDS011;49297;43.210;27.914;2023-04-12T06:10:13;2.90;;;1.70;;
63203;SDS011;49297;43.210;27.914;2023-04-12T06:12:44;4.63;;;2.10;;
63203;SDS011;49297;43.210;27.914;2023-04-12T06:15:10;2.80;;;2.15;;
63203;SDS011;49297;43.210;27.914;2023-04-12T06:17:36;3.05;;;1.70;;
63203;SDS011;49297;43.210;27.914;2023-04-12T06:20:05;2.20;;;1.90;;
63203;SDS011;49297;43.210;27.914;2023-04-12T06:22:34;2.95;;;1.77;;
63203;SDS011;49297;43.210;27.914;2023-04-12T06:25:00;5.03;;;2.33;;
63203;SDS011;49297;43.210;27.914;2023-04-12T06:27:26;3.65;;;2.38;;
63203;SDS011;49297;43.210;27.914;2023-04-12T06:29:52;2.93;;;2.53;;
63203;SDS011;49297;43.210;27.914;2023-04-12T06:32:18;3.23;;;2.10;;
63203;SDS011;49297;43.210;27.914;2023-04-12T06:34:44;2.43;;;1.47;;
63203;SDS011;49297;43.210;27.914;2023-04-12T06:37:09;8.20;;;2.13;;
63203;SDS011;49297;43.210;27.914;2023-04-12T06:39:35;6.57;;;2.47;;
63203;SDS011;49297;43.210;27.914;2023-04-12T06:42:01;3.50;;;2.30;;
63203;SDS011;49297;43.210;27.914;2023-04-12T06:44:27;4.50;;;1.90;;
63203;SDS011;49297;43.210;27.914;2023-04-12T06:46:53;3.87;;;2.10;;
63203;SDS011;49297;43.210;27.914;2023-04-12T06:49:19;4.63;;;3.17;;
63203;SDS011;49297;43.210;27.914;2023-04-12T06:51:45;6.05;;;2.63;;
63203;SDS011;49297;43.210;27.914;2023-04-12T06:54:12;4.50;;;2.07;;
63203;SDS011;49297;43.210;27.914;2023-04-12T06:56:38;5.80;;;2.20;;
63203;SDS011;49297;43.210;27.914;2023-04-12T06:59:04;5.47;;;2.42;;
63203;SDS011;49297;43.210;27.914;2023-04-12T07:01:30;4.70;;;2.20;;
63203;SDS011;49297;43.210;27.914;2023-04-12T07:03:56;1.98;;;1.33;;
63203;SDS011;49297;43.210;27.914;2023-04-12T07:06:22;1.90;;;1.45;;
63203;SDS011;49297;43.210;27.914;2023-04-12T07:08:48;2.08;;;1.33;;
63203;SDS011;49297;43.210;27.914;2023-04-12T07:11:13;4.45;;;1.92;;
63203;SDS011;49297;43.210;27.914;2023-04-12T07:13:39;4.35;;;2.03;;
63203;SDS011;49297;43.210;27.914;2023-04-12T07:16:05;2.47;;;1.90;;
63203;SDS011;49297;43.210;27.914;2023-04-12T07:18:31;4.78;;;1.95;;
63203;SDS011;49297;43.210;27.914;2023-04-12T07:20:57;3.57;;;1.77;;
63203;SDS011;49297;43.210;27.914;2023-04-12T07:23:23;4.88;;;2.42;;
63203;SDS011;49297;43.210;27.914;2023-04-12T07:25:50;3.45;;;2.40;;
63203;SDS011;49297;43.210;27.914;2023-04-12T07:28:16;4.60;;;2.25;;
63203;SDS011;49297;43.210;27.914;2023-04-12T07:30:43;4.93;;;2.55;;
63203;SDS011;49297;43.210;27.914;2023-04-12T07:33:09;5.73;;;2.83;;
63203;SDS011;49297;43.210;27.914;2023-04-12T07:35:34;6.13;;;2.03;;
63203;SDS011;49297;43.210;27.914;2023-04-12T07:38:00;5.97;;;2.90;;
63203;SDS011;49297;43.210;27.914;2023-04-12T07:40:26;2.75;;;1.90;;
63203;SDS011;49297;43.210;27.914;2023-04-12T07:42:52;6.30;;;2.08;;
63203;SDS011;49297;43.210;27.914;2023-04-12T07:45:18;5.55;;;2.17;;
63203;SDS011;49297;43.210;27.914;2023-04-12T07:47:44;6.17;;;2.60;;
63203;SDS011;49297;43.210;27.914;2023-04-12T07:50:10;8.82;;;2.70;;
63203;SDS011;49297;43.210;27.914;2023-04-12T07:52:37;5.53;;;2.90;;
63203;SDS011;49297;43.210;27.914;2023-04-12T07:55:03;5.70;;;2.40;;
63203;SDS011;49297;43.210;27.914;2023-04-12T07:57:29;4.22;;;2.60;;
63203;SDS011;49297;43.210;27.914;2023-04-12T07:59:55;11.00;;;3.43;;
63203;SDS011;49297;43.210;27.914;2023-04-12T08:02:22;5.97;;;2.20;;
63203;SDS011;49297;43.210;27.914;2023-04-12T08:04:54;7.60;;;2.53;;
63203;SDS011;49297;43.210;27.914;2023-04-12T08:07:20;4.78;;;1.98;;
63203;SDS011;49297;43.210;27.914;2023-04-12T08:09:47;9.23;;;2.10;;
63203;SDS011;49297;43.210;27.914;2023-04-12T08:12:13;4.93;;;3.13;;
63203;SDS011;49297;43.210;27.914;2023-04-12T08:14:39;8.85;;;3.25;;
63203;SDS011;49297;43.210;27.914;2023-04-12T08:17:05;9.35;;;3.35;;
63203;SDS011;49297;43.210;27.914;2023-04-12T08:19:31;4.35;;;3.13;;
63203;SDS011;49297;43.210;27.914;2023-04-12T08:21:57;6.75;;;2.63;;
63203;SDS011;49297;43.210;27.914;2023-04-12T08:24:23;4.97;;;2.30;;
63203;SDS011;49297;43.210;27.914;2023-04-12T08:26:52;3.15;;;2.00;;
63203;SDS011;49297;43.210;27.914;2023-04-12T08:29:17;5.20;;;2.05;;
63203;SDS011;49297;43.210;27.914;2023-04-12T08:31:43;4.10;;;2.10;;
63203;SDS011;49297;43.210;27.914;2023-04-12T08:34:10;3.05;;;2.10;;
63203;SDS011;49297;43.210;27.914;2023-04-12T08:36:36;2.80;;;2.00;;
63203;SDS011;49297;43.210;27.914;2023-04-12T08:39:01;2.85;;;1.92;;
63203;SDS011;49297;43.210;27.914;2023-04-12T08:41:27;2.75;;;1.55;;
63203;SDS011;49297;43.210;27.914;2023-04-12T08:43:53;2.10;;;1.77;;
63203;SDS011;49297;43.210;27.914;2023-04-12T08:46:22;3.00;;;1.65;;
63203;SDS011;49297;43.210;27.914;2023-04-12T08:48:49;1.23;;;1.10;;
63203;SDS011;49297;43.210;27.914;2023-04-12T08:51:18;1.42;;;1.13;;
63203;SDS011;49297;43.210;27.914;2023-04-12T08:53:46;1.58;;;1.30;;
63203;SDS011;49297;43.210;27.914;2023-04-12T08:56:12;1.33;;;1.20;;
63203;SDS011;49297;43.210;27.914;2023-04-12T08:58:39;1.85;;;1.23;;
63203;SDS011;49297;43.210;27.914;2023-04-12T09:01:16;2.78;;;0.95;;
63203;SDS011;49297;43.210;27.914;2023-04-12T09:03:44;1.45;;;1.15;;
63203;SDS011;49297;43.210;27.914;2023-04-12T09:06:13;1.38;;;1.23;;
63203;SDS011;49297;43.210;27.914;2023-04-12T09:08:55;1.33;;;1.13;;
63203;SDS011;49297;43.210;27.914;2023-04-12T09:11:25;1.10;;;0.85;;
63203;SDS011;49297;43.210;27.914;2023-04-12T09:13:54;1.05;;;0.95;;
63203;SDS011;49297;43.210;27.914;2023-04-12T09:16:36;5.30;;;1.45;;
63203;SDS011;49297;43.210;27.914;2023-04-12T09:19:03;2.97;;;1.60;;
63203;SDS011;49297;43.210;27.914;2023-04-12T09:21:30;2.22;;;1.20;;
63203;SDS011;49297;43.210;27.914;2023-04-12T09:24:02;1.35;;;1.25;;
63203;SDS011;49297;43.210;27.914;2023-04-12T09:26:37;1.58;;;0.98;;
63203;SDS011;49297;43.210;27.914;2023-04-12T09:29:04;1.40;;;1.10;;
63203;SDS011;49297;43.210;27.914;2023-04-12T09:31:30;2.03;;;0.70;;
63203;SDS011;49297;43.210;27.914;2023-04-12T09:34:04;2.42;;;0.88;;
63203;SDS011;49297;43.210;27.914;2023-04-12T09:36:39;1.67;;;1.10;;
63203;SDS011;49297;43.210;27.914;2023-04-12T09:39:05;2.90;;;1.38;;
63203;SDS011;49297;43.210;27.914;2023-04-12T09:41:32;3.70;;;1.70;;
63203;SDS011;49297;43.210;27.914;2023-04-12T09:43:58;1.77;;;1.50;;
63203;SDS011;49297;43.210;27.914;2023-04-12T09:46:24;1.70;;;1.10;;
63203;SDS011;49297;43.210;27.914;2023-04-12T09:48:51;1.25;;;1.02;;
63203;SDS011;49297;43.210;27.914;2023-04-12T09:51:31;1.80;;;1.00;;
63203;SDS011;49297;43.210;27.914;2023-04-12T09:53:59;1.92;;;1.08;;
63203;SDS011;49297;43.210;27.914;2023-04-12T09:56:27;1.10;;;0.80;;
63203;SDS011;49297;43.210;27.914;2023-04-12T09:58:55;1.60;;;0.70;;
63203;SDS011;49297;43.210;27.914;2023-04-12T10:03:50;2.00;;;0.80;;
63203;SDS011;49297;43.210;27.914;2023-04-12T10:06:18;1.87;;;1.10;;
63203;SDS011;49297;43.210;27.914;2023-04-12T10:08:44;1.60;;;0.90;;
63203;SDS011;49297;43.210;27.914;2023-04-12T10:13:36;1.57;;;1.03;;
63203;SDS011;49297;43.210;27.914;2023-04-12T10:16:03;2.55;;;1.13;;
63203;SDS011;49297;43.210;27.914;2023-04-12T10:18:33;3.05;;;1.15;;
63203;SDS011;49297;43.210;27.914;2023-04-12T10:21:01;2.45;;;1.15;;
63203;SDS011;49297;43.210;27.914;2023-04-12T10:23:30;1.77;;;1.20;;
63203;SDS011;49297;43.210;27.914;2023-04-12T10:25:57;1.58;;;1.45;;
63203;SDS011;49297;43.210;27.914;2023-04-12T10:28:24;3.70;;;1.23;;
63203;SDS011;49297;43.210;27.914;2023-04-12T10:30:50;2.75;;;1.25;;
63203;SDS011;49297;43.210;27.914;2023-04-12T10:33:23;3.70;;;1.92;;
63203;SDS011;49297;43.210;27.914;2023-04-12T10:35:54;1.70;;;1.40;;
63203;SDS011;49297;43.210;27.914;2023-04-12T10:38:30;1.90;;;1.38;;
63203;SDS011;49297;43.210;27.914;2023-04-12T10:48:53;1.80;;;1.52;;
63203;SDS011;49297;43.210;27.914;2023-04-12T10:51:20;2.40;;;1.27;;
63203;SDS011;49297;43.210;27.914;2023-04-12T10:53:52;0.90;;;0.90;;
63203;SDS011;49297;43.210;27.914;2023-04-12T10:59:08;1.35;;;1.05;;
63203;SDS011;49297;43.210;27.914;2023-04-12T11:01:35;1.20;;;1.10;;
63203;SDS011;49297;43.210;27.914;2023-04-12T11:04:09;1.45;;;0.90;;
63203;SDS011;49297;43.210;27.914;2023-04-12T11:06:41;3.13;;;1.25;;
63203;SDS011;49297;43.210;27.914;2023-04-12T11:14:28;2.45;;;1.20;;
63203;SDS011;49297;43.210;27.914;2023-04-12T11:19:37;1.80;;;1.10;;
63203;SDS011;49297;43.210;27.914;2023-04-12T11:22:05;3.60;;;1.73;;
63203;SDS011;49297;43.210;27.914;2023-04-12T13:05:16;3.40;;;1.50;;
63203;SDS011;49297;43.210;27.914;2023-04-12T13:07:47;3.60;;;1.85;;
63203;SDS011;49297;43.210;27.914;2023-04-12T13:10:13;2.78;;;1.77;;
63203;SDS011;49297;43.210;27.914;2023-04-12T13:12:38;2.78;;;2.08;;
63203;SDS011;49297;43.210;27.914;2023-04-12T13:15:05;2.70;;;1.80;;
63203;SDS011;49297;43.210;27.914;2023-04-12T13:17:31;4.43;;;2.40;;
63203;SDS011;49297;43.210;27.914;2023-04-12T13:19:57;3.58;;;1.92;;
63203;SDS011;49297;43.210;27.914;2023-04-12T13:22:23;4.15;;;2.60;;
63203;SDS011;49297;43.210;27.914;2023-04-12T13:24:49;4.05;;;2.42;;
63203;SDS011;49297;43.210;27.914;2023-04-12T13:27:16;3.47;;;2.53;;
63203;SDS011;49297;43.210;27.914;2023-04-12T13:29:42;3.17;;;2.30;;
63203;SDS011;49297;43.210;27.914;2023-04-12T13:32:08;4.47;;;2.10;;
63203;SDS011;49297;43.210;27.914;2023-04-12T13:34:34;7.43;;;2.65;;
63203;SDS011;49297;43.210;27.914;2023-04-12T13:37:00;3.42;;;2.35;;
63203;SDS011;49297;43.210;27.914;2023-04-12T13:39:26;2.35;;;2.15;;
63203;SDS011;49297;43.210;27.914;2023-04-12T13:41:52;2.85;;;2.65;;
63203;SDS011;49297;43.210;27.914;2023-04-12T13:44:18;3.78;;;2.47;;
63203;SDS011;49297;43.210;27.914;2023-04-12T13:46:44;3.85;;;2.85;;
63203;SDS011;49297;43.210;27.914;2023-04-12T13:49:09;4.93;;;2.83;;
63203;SDS011;49297;43.210;27.914;2023-04-12T13:51:35;3.85;;;2.50;;
63203;SDS011;49297;43.210;27.914;2023-04-12T13:54:01;3.90;;;3.30;;
63203;SDS011;49297;43.210;27.914;2023-04-12T13:56:27;3.40;;;3.10;;
63203;SDS011;49297;43.210;27.914;2023-04-12T13:58:54;3.45;;;2.67;;
63203;SDS011;49297;43.210;27.914;2023-04-12T14:01:21;6.10;;;2.80;;
63203;SDS011;49297;43.210;27.914;2023-04-12T14:03:49;4.32;;;3.42;;
63203;SDS011;49297;43.210;27.914;2023-04-12T14:06:16;3.78;;;2.80;;
63203;SDS011;49297;43.210;27.914;2023-04-12T14:08:41;5.85;;;3.55;;
63203;SDS011;49297;43.210;27.914;2023-04-12T14:11:07;3.15;;;2.80;;
63203;SDS011;49297;43.210;27.914;2023-04-12T14:13:33;4.00;;;3.25;;
63203;SDS011;49297;43.210;27.914;2023-04-12T14:15:59;3.35;;;3.03;;
63203;SDS011;49297;43.210;27.914;2023-04-12T14:18:24;4.05;;;3.40;;
63203;SDS011;49297;43.210;27.914;2023-04-12T14:20:50;3.38;;;3.00;;
63203;SDS011;49297;43.210;27.914;2023-04-12T14:23:17;4.78;;;3.22;;
63203;SDS011;49297;43.210;27.914;2023-04-12T14:25:43;4.83;;;3.23;;
63203;SDS011;49297;43.210;27.914;2023-04-12T14:28:10;3.55;;;2.67;;
63203;SDS011;49297;43.210;27.914;2023-04-12T14:30:43;2.37;;;2.13;;
63203;SDS011;49297;43.210;27.914;2023-04-12T14:33:09;3.67;;;2.47;;
63203;SDS011;49297;43.210;27.914;2023-04-12T14:35:35;3.00;;;2.50;;
63203;SDS011;49297;43.210;27.914;2023-04-12T14:38:01;3.50;;;2.33;;
63203;SDS011;49297;43.210;27.914;2023-04-12T14:40:29;3.72;;;1.88;;
63203;SDS011;49297;43.210;27.914;2023-04-12T14:42:55;2.58;;;1.95;;
63203;SDS011;49297;43.210;27.914;2023-04-12T14:45:20;2.33;;;2.13;;
63203;SDS011;49297;43.210;27.914;2023-04-12T14:47:46;3.50;;;2.33;;
63203;SDS011;49297;43.210;27.914;2023-04-12T14:50:12;2.43;;;1.47;;
63203;SDS011;49297;43.210;27.914;2023-04-12T14:52:38;2.45;;;2.25;;
63203;SDS011;49297;43.210;27.914;2023-04-12T14:55:04;2.92;;;2.70;;
63203;SDS011;49297;43.210;27.914;2023-04-12T14:57:32;3.50;;;2.60;;
63203;SDS011;49297;43.210;27.914;2023-04-12T14:59:59;3.70;;;2.85;;
63203;SDS011;49297;43.210;27.914;2023-04-12T15:02:26;4.35;;;3.33;;
63203;SDS011;49297;43.210;27.914;2023-04-12T15:04:52;3.75;;;3.33;;
63203;SDS011;49297;43.210;27.914;2023-04-12T15:07:18;5.77;;;4.50;;
63203;SDS011;49297;43.210;27.914;2023-04-12T15:09:44;3.03;;;2.47;;
63203;SDS011;49297;43.210;27.914;2023-04-12T15:12:10;3.00;;;2.58;;
63203;SDS011;49297;43.210;27.914;2023-04-12T15:14:36;2.70;;;2.22;;
63203;SDS011;49297;43.210;27.914;2023-04-12T15:17:02;4.30;;;2.85;;
63203;SDS011;49297;43.210;27.914;2023-04-12T15:19:29;3.53;;;2.67;;
63203;SDS011;49297;43.210;27.914;2023-04-12T15:21:55;3.53;;;3.10;;
63203;SDS011;49297;43.210;27.914;2023-04-12T15:24:21;4.70;;;4.03;;
63203;SDS011;49297;43.210;27.914;2023-04-12T15:26:49;6.72;;;6.03;;
63203;SDS011;49297;43.210;27.914;2023-04-12T15:29:17;5.43;;;4.93;;
63203;SDS011;49297;43.210;27.914;2023-04-12T15:31:45;5.13;;;4.63;;
63203;SDS011;49297;43.210;27.914;2023-04-12T15:34:11;3.50;;;3.20;;
63203;SDS011;49297;43.210;27.914;2023-04-12T15:36:41;4.25;;;3.83;;
63203;SDS011;49297;43.210;27.914;2023-04-12T15:39:10;7.18;;;3.78;;
63203;SDS011;49297;43.210;27.914;2023-04-12T15:41:37;4.23;;;3.33;;
63203;SDS011;49297;43.210;27.914;2023-04-12T15:44:04;4.60;;;4.20;;
63203;SDS011;49297;43.210;27.914;2023-04-12T15:46:31;4.68;;;4.25;;
63203;SDS011;49297;43.210;27.914;2023-04-12T15:48:58;4.68;;;3.83;;
63203;SDS011;49297;43.210;27.914;2023-04-12T15:51:24;7.05;;;2.70;;
63203;SDS011;49297;43.210;27.914;2023-04-12T15:53:51;2.75;;;2.00;;
63203;SDS011;49297;43.210;27.914;2023-04-12T15:56:18;2.83;;;2.08;;
63203;SDS011;49297;43.210;27.914;2023-04-12T15:58:50;3.58;;;2.67;;
63203;SDS011;49297;43.210;27.914;2023-04-12T16:01:17;3.30;;;2.45;;
63203;SDS011;49297;43.210;27.914;2023-04-12T16:03:44;2.65;;;2.17;;
63203;SDS011;49297;43.210;27.914;2023-04-12T16:06:13;4.33;;;2.47;;
63203;SDS011;49297;43.210;27.914;2023-04-12T16:08:49;3.33;;;2.75;;
63203;SDS011;49297;43.210;27.914;2023-04-12T16:11:16;4.32;;;3.38;;
63203;SDS011;49297;43.210;27.914;2023-04-12T16:13:44;4.35;;;3.63;;
63203;SDS011;49297;43.210;27.914;2023-04-12T16:16:12;3.95;;;3.20;;
63203;SDS011;49297;43.210;27.914;2023-04-12T16:18:40;4.80;;;3.07;;
63203;SDS011;49297;43.210;27.914;2023-04-12T16:21:06;3.13;;;2.73;;
63203;SDS011;49297;43.210;27.914;2023-04-12T16:23:34;2.60;;;2.10;;
63203;SDS011;49297;43.210;27.914;2023-04-12T16:26:02;2.83;;;2.10;;
63203;SDS011;49297;43.210;27.914;2023-04-12T16:28:29;2.55;;;2.35;;
63203;SDS011;49297;43.210;27.914;2023-04-12T16:30:55;3.65;;;3.17;;
63203;SDS011;49297;43.210;27.914;2023-04-12T16:33:21;4.70;;;3.50;;
63203;SDS011;49297;43.210;27.914;2023-04-12T16:35:47;4.63;;;3.77;;
63203;SDS011;49297;43.210;27.914;2023-04-12T16:38:13;3.60;;;3.03;;
63203;SDS011;49297;43.210;27.914;2023-04-12T16:40:39;5.20;;;3.33;;
63203;SDS011;49297;43.210;27.914;2023-04-12T16:43:04;3.88;;;2.80;;
63203;SDS011;49297;43.210;27.914;2023-04-12T16:45:31;3.13;;;2.70;;
63203;SDS011;49297;43.210;27.914;2023-04-12T16:47:57;5.80;;;3.95;;
63203;SDS011;49297;43.210;27.914;2023-04-12T16:50:23;3.95;;;3.25;;
63203;SDS011;49297;43.210;27.914;2023-04-12T16:52:50;5.18;;;4.47;;